createdAt,value
2018-07-09T00:00:45.072Z,1.90
2018-07-09T00:03:14.598Z,2.80
2018-07-09T00:05:43.928Z,1.90
2018-07-09T00:08:13.098Z,1.90
2018-07-09T00:10:54.001Z,2.30
2018-07-09T00:13:22.993Z,3.07
2018-07-09T00:15:51.339Z,3.17
2018-07-09T00:18:20.859Z,2.13
2018-07-09T00:20:49.150Z,3.90
2018-07-09T00:23:17.798Z,3.73
2018-07-09T00:25:47.512Z,3.80
2018-07-09T00:28:16.699Z,3.93
2018-07-09T00:30:45.123Z,3.97
2018-07-09T00:33:13.460Z,3.97
2018-07-09T00:35:41.755Z,3.83
2018-07-09T00:38:10.093Z,3.53
2018-07-09T00:40:38.368Z,3.47
2018-07-09T00:43:06.710Z,4.13
2018-07-09T00:45:35.004Z,4.30
2018-07-09T00:48:03.011Z,5.00
2018-07-09T00:50:31.396Z,5.10
2018-07-09T00:53:00.547Z,4.77
2018-07-09T00:55:28.871Z,5.20
2018-07-09T00:57:57.207Z,5.57
2018-07-09T01:00:25.608Z,6.07
2018-07-09T01:02:53.963Z,5.73
2018-07-09T01:05:22.260Z,6.10
2018-07-09T01:07:50.614Z,6.07
2018-07-09T01:10:19.550Z,5.43
2018-07-09T01:12:47.942Z,4.90
2018-07-09T01:15:16.270Z,4.60
2018-07-09T01:17:44.771Z,4.47
2018-07-09T01:20:13.074Z,3.40
2018-07-09T01:22:41.386Z,4.03
2018-07-09T01:25:09.417Z,3.10
2018-07-09T01:27:37.759Z,3.40
2018-07-09T01:30:13.244Z,3.40
2018-07-09T01:32:41.822Z,4.50
2018-07-09T01:35:11.234Z,3.97
2018-07-09T01:37:40.239Z,3.63
2018-07-09T01:42:43.309Z,3.73
2018-07-09T01:45:11.594Z,4.07
2018-07-09T01:47:39.907Z,4.67
2018-07-09T01:50:08.243Z,4.20
2018-07-09T01:52:36.518Z,4.00
2018-07-09T01:55:04.844Z,4.40
2018-07-09T01:57:33.207Z,4.83
2018-07-09T02:00:01.515Z,2.60
2018-07-09T02:02:29.815Z,2.63
2018-07-09T02:04:58.210Z,2.47
2018-07-09T02:07:26.549Z,3.30
2018-07-09T02:09:54.867Z,4.00
2018-07-09T02:12:23.228Z,4.40
2018-07-09T02:14:51.691Z,4.03
2018-07-09T02:17:20.035Z,3.67
2018-07-09T02:19:48.360Z,4.23
2018-07-09T02:22:16.698Z,2.70
2018-07-09T02:24:45.010Z,3.77
2018-07-09T02:27:13.078Z,3.70
2018-07-09T02:29:41.113Z,3.47
2018-07-09T02:32:09.418Z,3.47
2018-07-09T02:34:37.776Z,2.53
2018-07-09T02:37:06.110Z,3.47
2018-07-09T02:39:34.432Z,3.50
2018-07-09T02:42:02.770Z,3.57
2018-07-09T02:44:31.080Z,3.77
2018-07-09T02:46:59.403Z,3.40
2018-07-09T02:49:27.706Z,3.63
2018-07-09T02:51:56.044Z,3.47
2018-07-09T02:54:24.384Z,3.80
2018-07-09T02:56:52.738Z,4.20
2018-07-09T02:59:21.172Z,4.03
2018-07-09T03:01:49.462Z,3.97
2018-07-09T03:04:17.778Z,3.57
2018-07-09T03:06:46.112Z,4.53
2018-07-09T03:09:14.471Z,3.80
2018-07-09T03:11:42.861Z,4.53
2018-07-09T03:14:11.121Z,4.20
2018-07-09T03:16:39.464Z,3.30
2018-07-09T03:19:07.768Z,4.30
2018-07-09T03:21:36.084Z,3.47
2018-07-09T03:24:04.503Z,3.90
2018-07-09T03:26:32.819Z,4.03
2018-07-09T03:29:01.132Z,3.10
2018-07-09T03:31:29.472Z,4.50
2018-07-09T03:33:57.808Z,2.60
2018-07-09T03:36:26.104Z,5.07
2018-07-09T03:38:54.439Z,2.27
2018-07-09T03:41:22.743Z,5.10
2018-07-09T03:43:51.365Z,3.60
2018-07-09T03:46:19.691Z,5.23
2018-07-09T03:48:48.034Z,4.87
2018-07-09T03:51:16.361Z,4.77
2018-07-09T03:53:44.774Z,5.27
2018-07-09T03:56:13.119Z,4.50
2018-07-09T03:58:41.534Z,4.20
2018-07-09T04:01:09.835Z,4.83
2018-07-09T04:03:38.141Z,4.33
2018-07-09T04:06:06.495Z,3.53
2018-07-09T04:08:34.799Z,4.43
2018-07-09T04:11:03.122Z,2.30
2018-07-09T04:13:31.425Z,4.43
2018-07-09T04:15:59.736Z,2.80
2018-07-09T04:18:28.043Z,5.00
2018-07-09T04:20:56.959Z,5.00
2018-07-09T04:23:25.304Z,2.73
2018-07-09T04:25:53.641Z,3.90
2018-07-09T04:28:22.368Z,4.73
2018-07-09T04:30:51.026Z,4.67
2018-07-09T04:33:19.754Z,3.57
2018-07-09T04:35:48.214Z,2.50
2018-07-09T04:38:16.551Z,3.60
2018-07-09T04:40:44.599Z,5.17
2018-07-09T04:43:14.184Z,3.50
2018-07-09T04:45:42.472Z,3.30
2018-07-09T04:48:10.769Z,3.67
2018-07-09T04:50:39.054Z,2.80
2018-07-09T04:53:07.407Z,4.87
2018-07-09T04:55:35.697Z,3.43
2018-07-09T04:58:04.014Z,3.27
2018-07-09T05:00:32.382Z,3.87
2018-07-09T05:03:00.692Z,2.87
2018-07-09T05:05:29.076Z,3.10
2018-07-09T05:07:57.566Z,3.13
2018-07-09T05:10:26.178Z,2.83
2018-07-09T05:12:54.778Z,2.87
2018-07-09T05:15:23.068Z,2.80
2018-07-09T05:17:51.383Z,2.63
2018-07-09T05:20:19.852Z,2.87
2018-07-09T05:22:48.834Z,2.33
2018-07-09T05:25:17.227Z,3.60
2018-07-09T05:27:45.633Z,3.23
2018-07-09T05:30:13.962Z,2.60
2018-07-09T05:32:42.258Z,3.53
2018-07-09T05:35:10.596Z,2.57
2018-07-09T05:37:38.945Z,2.97
2018-07-09T05:40:07.582Z,2.33
2018-07-09T05:42:37.134Z,3.10
2018-07-09T05:45:05.930Z,2.50
2018-07-09T05:47:34.986Z,2.90
2018-07-09T05:50:03.324Z,3.00
2018-07-09T05:52:31.699Z,3.23
2018-07-09T05:55:00.074Z,3.10
2018-07-09T05:57:28.418Z,2.77
2018-07-09T05:59:56.837Z,2.70
2018-07-09T06:02:25.333Z,3.23
2018-07-09T06:04:53.666Z,2.33
2018-07-09T06:07:22.021Z,2.30
2018-07-09T06:09:51.109Z,2.07
2018-07-09T06:12:19.414Z,2.50
2018-07-09T06:14:47.700Z,2.40
2018-07-09T06:17:16.019Z,2.67
2018-07-09T06:19:44.320Z,2.30
2018-07-09T06:22:12.618Z,2.40
2018-07-09T06:24:41.037Z,2.67
2018-07-09T06:27:09.363Z,2.20
2018-07-09T06:29:37.663Z,2.70
2018-07-09T06:32:06.015Z,2.27
2018-07-09T06:34:34.319Z,2.50
2018-07-09T06:37:02.739Z,2.40
2018-07-09T06:39:31.075Z,2.40
2018-07-09T06:41:59.399Z,2.03
2018-07-09T06:44:27.877Z,2.07
2018-07-09T06:46:56.184Z,2.47
2018-07-09T06:49:24.528Z,2.30
2018-07-09T06:51:52.551Z,2.00
2018-07-09T06:54:20.837Z,2.20
2018-07-09T06:56:49.242Z,2.30
2018-07-09T06:59:17.534Z,2.87
2018-07-09T07:01:45.551Z,2.40
2018-07-09T07:04:13.855Z,1.63
2018-07-09T07:06:42.163Z,2.30
2018-07-09T07:09:10.241Z,2.00
2018-07-09T07:11:38.450Z,1.93
2018-07-09T07:14:06.785Z,1.70
2018-07-09T07:16:35.100Z,1.73
2018-07-09T07:19:03.384Z,2.10
2018-07-09T07:21:31.735Z,2.10
2018-07-09T07:24:00.030Z,1.90
2018-07-09T07:26:28.390Z,1.90
2018-07-09T07:28:56.789Z,1.60
2018-07-09T07:31:25.080Z,1.63
2018-07-09T07:33:53.723Z,2.10
2018-07-09T07:36:22.048Z,2.20
2018-07-09T07:38:50.511Z,2.23
2018-07-09T07:41:18.843Z,1.90
2018-07-09T07:43:47.207Z,1.77
2018-07-09T07:53:02.088Z,2.07
2018-07-09T07:55:30.504Z,2.00
2018-07-09T07:57:58.845Z,2.07
2018-07-09T08:00:27.155Z,1.80
2018-07-09T08:02:55.488Z,1.90
2018-07-09T08:05:23.848Z,2.00
2018-07-09T08:07:52.190Z,2.30
2018-07-09T08:10:20.487Z,2.23
2018-07-09T08:13:27.169Z,2.10
2018-07-09T08:15:17.184Z,2.00
2018-07-09T08:17:45.474Z,2.63
2018-07-09T08:20:13.839Z,1.97
2018-07-09T08:22:42.119Z,2.30
2018-07-09T08:25:10.759Z,3.00
2018-07-09T08:27:38.955Z,2.50
2018-07-09T08:30:07.511Z,2.27
2018-07-09T08:32:35.900Z,1.87
2018-07-09T08:35:03.964Z,1.90
2018-07-09T08:37:32.269Z,2.30
2018-07-09T08:40:00.575Z,3.00
2018-07-09T08:42:28.944Z,2.40
2018-07-09T08:44:57.243Z,2.47
2018-07-09T08:47:25.577Z,2.40
2018-07-09T08:49:53.837Z,1.97
2018-07-09T08:52:22.167Z,2.67
2018-07-09T08:54:50.491Z,2.30
2018-07-09T08:57:18.818Z,2.07
2018-07-09T08:59:47.163Z,2.30
2018-07-09T09:02:15.469Z,2.60
2018-07-09T09:04:43.832Z,2.33
2018-07-09T09:07:12.155Z,2.60
2018-07-09T09:09:40.540Z,2.30
2018-07-09T09:12:09.112Z,2.27
2018-07-09T09:14:37.510Z,2.50
2018-07-09T09:17:05.796Z,2.50
2018-07-09T09:19:34.118Z,2.77
2018-07-09T09:22:02.475Z,2.30
2018-07-09T09:24:30.779Z,2.67
2018-07-09T09:26:59.114Z,2.40
2018-07-09T09:29:27.427Z,3.00
2018-07-09T09:31:55.755Z,2.73
2018-07-09T09:34:24.038Z,2.40
2018-07-09T09:36:52.083Z,2.73
2018-07-09T09:39:20.386Z,2.40
2018-07-09T09:41:48.768Z,2.80
2018-07-09T09:44:17.124Z,2.27
2018-07-09T09:46:45.443Z,2.30
2018-07-09T09:49:13.801Z,2.47
2018-07-09T09:51:42.059Z,2.40
2018-07-09T09:54:10.368Z,3.10
2018-07-09T09:56:38.644Z,2.70
2018-07-09T09:59:06.971Z,2.73
2018-07-09T10:01:35.278Z,2.73
2018-07-09T10:04:03.614Z,3.13
2018-07-09T10:06:31.971Z,2.30
2018-07-09T10:09:00.282Z,2.30
2018-07-09T10:11:28.581Z,2.40
2018-07-09T10:13:56.967Z,2.80
2018-07-09T10:16:25.294Z,2.70
2018-07-09T10:18:53.629Z,2.40
2018-07-09T10:21:21.999Z,2.97
2018-07-09T10:23:50.291Z,2.90
2018-07-09T10:26:18.622Z,2.47
2018-07-09T10:28:46.944Z,2.30
2018-07-09T10:31:15.295Z,2.60
2018-07-09T10:33:43.847Z,2.67
2018-07-09T10:36:12.226Z,2.60
2018-07-09T10:38:40.549Z,2.70
2018-07-09T10:41:08.937Z,2.63
2018-07-09T10:43:37.467Z,2.73
2018-07-09T10:46:05.796Z,2.47
2018-07-09T10:48:34.135Z,2.30
2018-07-09T10:51:02.520Z,2.87
2018-07-09T10:53:30.877Z,2.73
2018-07-09T10:55:59.178Z,2.47
2018-07-09T10:58:27.552Z,3.20
2018-07-09T11:02:25.064Z,2.80
2018-07-09T11:04:53.377Z,2.93
2018-07-09T11:07:21.734Z,2.70
2018-07-09T11:09:50.062Z,3.50
2018-07-09T11:12:18.360Z,2.87
2018-07-09T11:14:46.725Z,2.63
2018-07-09T11:17:15.036Z,2.50
2018-07-09T11:19:43.319Z,2.63
2018-07-09T11:22:11.684Z,3.17
2018-07-09T11:24:40.673Z,2.93
2018-07-09T11:27:08.956Z,2.73
2018-07-09T11:29:37.304Z,2.80
2018-07-09T11:32:05.653Z,2.70
2018-07-09T11:34:33.957Z,2.57
2018-07-09T11:37:02.273Z,2.40
2018-07-09T11:39:30.612Z,2.43
2018-07-09T11:41:58.952Z,2.80
2018-07-09T11:44:28.098Z,3.10
2018-07-09T11:46:56.647Z,2.07
2018-07-09T11:49:24.955Z,2.87
2018-07-09T11:51:53.559Z,2.73
2018-07-09T11:54:21.895Z,2.70
2018-07-09T11:56:50.177Z,2.83
2018-07-09T11:59:18.541Z,2.67
2018-07-09T12:01:46.865Z,3.03
2018-07-09T12:04:15.169Z,2.73
2018-07-09T12:06:44.042Z,3.03
2018-07-09T12:09:12.462Z,3.00
2018-07-09T12:11:40.848Z,2.70
2018-07-09T12:14:09.175Z,2.70
2018-07-09T12:16:37.454Z,2.80
2018-07-09T12:19:05.805Z,3.00
2018-07-09T12:21:34.109Z,2.00
2018-07-09T12:24:02.404Z,2.80
2018-07-09T12:26:30.744Z,2.50
2018-07-09T12:28:59.044Z,2.33
2018-07-09T12:31:27.403Z,2.37
2018-07-09T12:33:55.699Z,2.93
2018-07-09T12:36:24.244Z,2.73
2018-07-09T12:38:52.433Z,2.93
2018-07-09T12:41:20.790Z,2.83
2018-07-09T12:43:49.334Z,2.50
2018-07-09T12:46:17.615Z,2.27
2018-07-09T12:48:45.987Z,2.23
2018-07-09T12:51:14.031Z,2.80
2018-07-09T12:53:42.339Z,2.60
2018-07-09T12:56:10.711Z,2.37
2018-07-09T12:58:39.043Z,2.47
2018-07-09T13:01:07.507Z,2.50
2018-07-09T13:03:35.867Z,2.67
2018-07-09T13:06:04.231Z,2.43
2018-07-09T13:08:32.329Z,2.43
2018-07-09T13:11:00.692Z,2.50
2018-07-09T13:13:28.786Z,2.03
2018-07-09T13:15:57.062Z,2.00
2018-07-09T13:18:25.360Z,2.27
2018-07-09T13:20:53.712Z,1.80
2018-07-09T13:23:22.023Z,2.10
2018-07-09T13:25:50.330Z,2.00
2018-07-09T13:28:18.624Z,2.07
2018-07-09T13:30:46.999Z,2.10
2018-07-09T13:33:15.311Z,2.00
2018-07-09T13:35:43.655Z,2.10
2018-07-09T13:38:11.991Z,1.80
2018-07-09T13:40:40.299Z,1.87
2018-07-09T13:43:08.690Z,1.73
2018-07-09T13:45:37.022Z,2.10
2018-07-09T13:48:05.335Z,2.10
2018-07-09T13:50:34.259Z,1.83
2018-07-09T13:53:02.550Z,1.90
2018-07-09T13:55:31.251Z,2.20
2018-07-09T13:57:59.596Z,1.90
2018-07-09T14:00:27.992Z,1.67
2018-07-09T14:02:56.429Z,2.00
2018-07-09T14:05:24.772Z,2.00
2018-07-09T14:07:52.915Z,2.03
2018-07-09T14:10:21.264Z,2.10
2018-07-09T14:12:49.976Z,1.80
2018-07-09T14:15:18.279Z,2.03
2018-07-09T14:17:46.611Z,1.97
2018-07-09T14:20:24.150Z,1.80
2018-07-09T14:22:52.711Z,1.80
2018-07-09T14:25:21.048Z,1.70
2018-07-09T14:27:49.374Z,1.47
2018-07-09T14:30:17.884Z,1.40
2018-07-09T14:32:46.191Z,1.60
2018-07-09T14:35:14.519Z,1.70
2018-07-09T14:37:42.894Z,1.63
2018-07-09T14:40:11.206Z,1.70
2018-07-09T14:42:39.534Z,1.53
2018-07-09T14:45:09.086Z,1.33
2018-07-09T14:47:37.363Z,1.60
2018-07-09T14:50:05.787Z,1.30
2018-07-09T14:52:34.181Z,1.40
2018-07-09T14:55:02.459Z,1.30
2018-07-09T14:57:30.788Z,1.40
2018-07-09T14:59:59.094Z,1.40
2018-07-09T15:02:27.476Z,1.30
2018-07-09T15:04:55.774Z,1.30
2018-07-09T15:07:24.373Z,1.17
2018-07-09T15:09:52.738Z,1.40
2018-07-09T15:12:21.045Z,1.47
2018-07-09T15:14:49.364Z,1.20
2018-07-09T15:17:17.756Z,1.27
2018-07-09T15:19:46.110Z,1.20
2018-07-09T15:22:14.424Z,1.40
2018-07-09T15:24:42.784Z,1.37
2018-07-09T15:27:11.143Z,1.30
2018-07-09T15:29:39.621Z,1.40
2018-07-09T15:32:19.236Z,1.53
2018-07-09T15:34:47.560Z,1.63
2018-07-09T15:37:15.938Z,1.50
2018-07-09T15:39:44.235Z,1.40
2018-07-09T15:42:12.564Z,1.47
2018-07-09T15:44:40.998Z,1.60
2018-07-09T15:47:09.638Z,1.60
2018-07-09T15:49:38.314Z,1.80
2018-07-09T15:52:06.713Z,2.20
2018-07-09T15:54:35.005Z,1.77
2018-07-09T15:57:03.332Z,2.57
2018-07-09T15:59:31.808Z,2.33
2018-07-09T16:02:00.125Z,2.20
2018-07-09T16:04:28.209Z,2.33
2018-07-09T16:06:56.335Z,2.97
2018-07-09T16:09:24.743Z,2.33
2018-07-09T16:11:53.046Z,2.43
2018-07-09T16:14:21.360Z,2.90
2018-07-09T16:16:49.695Z,2.50
2018-07-09T16:19:18.300Z,2.50
2018-07-09T16:21:46.714Z,2.40
2018-07-09T16:24:15.039Z,3.30
2018-07-09T16:26:43.392Z,2.67
2018-07-09T16:29:11.939Z,3.23
2018-07-09T16:31:40.149Z,3.10
2018-07-09T16:34:08.795Z,4.13
2018-07-09T16:36:37.337Z,3.23
2018-07-09T16:39:06.014Z,3.20
2018-07-09T16:41:34.775Z,2.83
2018-07-09T16:44:03.155Z,3.13
2018-07-09T16:46:31.489Z,2.83
2018-07-09T16:48:59.937Z,3.10
2018-07-09T16:51:28.287Z,3.23
2018-07-09T16:53:56.610Z,3.20
2018-07-09T16:56:24.947Z,3.37
2018-07-09T16:58:53.301Z,3.07
2018-07-09T17:01:21.610Z,3.57
2018-07-09T17:03:49.951Z,3.67
2018-07-09T17:06:18.286Z,3.33
2018-07-09T17:08:46.610Z,2.93
2018-07-09T17:11:14.924Z,3.07
2018-07-09T17:13:43.252Z,3.87
2018-07-09T17:16:12.791Z,3.00
2018-07-09T17:18:41.206Z,2.63
2018-07-09T17:21:09.243Z,2.63
2018-07-09T17:23:37.614Z,2.67
2018-07-09T17:26:05.989Z,2.70
2018-07-09T17:28:34.432Z,2.70
2018-07-09T17:31:02.799Z,2.37
2018-07-09T17:33:31.099Z,2.43
2018-07-09T17:35:59.490Z,1.97
2018-07-09T17:38:27.927Z,2.00
2018-07-09T17:40:56.324Z,1.47
2018-07-09T17:43:24.621Z,1.50
2018-07-09T17:45:52.960Z,1.97
2018-07-09T17:48:21.276Z,1.70
2018-07-09T17:50:49.606Z,1.70
2018-07-09T17:53:18.141Z,2.13
2018-07-09T17:55:46.481Z,1.83
2018-07-09T17:58:15.044Z,1.97
2018-07-09T18:00:43.332Z,1.77
2018-07-09T18:03:11.733Z,1.87
2018-07-09T18:05:40.152Z,2.00
2018-07-09T18:08:08.506Z,1.53
2018-07-09T18:10:36.826Z,1.93
2018-07-09T18:13:05.222Z,1.30
2018-07-09T18:15:33.542Z,1.27
2018-07-09T18:18:01.858Z,1.70
2018-07-09T18:20:30.191Z,1.67
2018-07-09T18:22:58.530Z,1.70
2018-07-09T18:25:26.935Z,1.93
2018-07-09T18:27:56.036Z,1.53
2018-07-09T18:30:24.570Z,1.37
2018-07-09T18:32:53.198Z,1.40
2018-07-09T18:35:21.413Z,1.03
2018-07-09T18:37:49.544Z,1.83
2018-07-09T18:40:17.682Z,1.33
2018-07-09T18:42:45.888Z,1.83
2018-07-09T18:45:14.082Z,1.80
2018-07-09T18:47:42.392Z,1.57
2018-07-09T18:50:10.479Z,1.83
2018-07-09T18:52:38.598Z,1.70
2018-07-09T18:55:06.808Z,1.80
2018-07-09T18:57:35.002Z,1.60
2018-07-09T19:00:03.228Z,1.93
2018-07-09T19:02:31.385Z,1.77
2018-07-09T19:04:59.778Z,2.60
2018-07-09T19:07:31.430Z,2.03
2018-07-09T19:09:59.800Z,2.20
2018-07-09T19:12:33.347Z,2.40
2018-07-09T19:15:01.761Z,1.53
2018-07-09T19:17:44.704Z,2.40
2018-07-09T19:21:16.349Z,2.17
2018-07-09T19:23:43.999Z,2.27
2018-07-09T19:26:11.587Z,2.00
2018-07-09T19:28:39.311Z,2.07
2018-07-09T19:31:07.908Z,1.60
2018-07-09T19:33:36.025Z,1.70
2018-07-09T19:36:03.954Z,1.67
2018-07-09T19:38:31.594Z,1.20
2018-07-09T19:40:59.419Z,1.80
2018-07-09T19:43:27.104Z,1.60
2018-07-09T19:45:54.734Z,1.37
2018-07-09T19:48:22.320Z,1.03
2018-07-09T19:50:49.992Z,1.07
2018-07-09T19:53:17.581Z,1.10
2018-07-09T19:55:45.205Z,1.10
2018-07-09T19:58:12.826Z,1.40
2018-07-09T20:00:40.849Z,1.40
2018-07-09T20:03:09.073Z,1.17
2018-07-09T20:05:36.695Z,1.67
2018-07-09T20:08:05.040Z,1.20
2018-07-09T20:10:38.234Z,0.97
2018-07-09T20:13:11.380Z,1.47
2018-07-09T20:15:44.608Z,1.10
2018-07-09T20:18:12.196Z,1.33
2018-07-09T20:20:39.782Z,1.37
2018-07-09T20:23:07.342Z,1.57
2018-07-09T20:25:34.981Z,1.33
2018-07-09T20:28:02.547Z,1.57
2018-07-09T20:30:30.155Z,1.10
2018-07-09T20:32:57.778Z,0.93
2018-07-09T20:35:25.395Z,1.47
2018-07-09T20:37:53.006Z,1.60
2018-07-09T20:40:20.605Z,1.40
2018-07-09T20:42:48.370Z,0.97
2018-07-09T20:45:15.986Z,1.17
2018-07-09T20:47:43.601Z,1.40
2018-07-09T20:50:11.018Z,1.30
2018-07-09T20:52:38.464Z,1.20
2018-07-09T20:55:05.755Z,1.47
2018-07-09T20:57:33.011Z,1.27
2018-07-09T21:00:00.312Z,1.10
2018-07-09T21:02:27.725Z,1.20
2018-07-09T21:04:55.204Z,1.27
2018-07-09T21:07:22.458Z,1.03
2018-07-09T21:09:49.702Z,1.40
2018-07-09T21:12:17.173Z,1.30
2018-07-09T21:14:44.446Z,1.20
2018-07-09T21:17:11.724Z,1.43
2018-07-09T21:19:39.007Z,1.37
2018-07-09T21:22:06.313Z,0.90
2018-07-09T21:24:33.578Z,1.10
2018-07-09T21:27:00.828Z,1.07
2018-07-09T21:29:28.113Z,1.63
2018-07-09T21:31:55.384Z,1.60
2018-07-09T21:34:22.681Z,1.30
2018-07-09T21:36:50.005Z,0.87
2018-07-09T21:39:17.283Z,1.07
2018-07-09T21:41:44.594Z,1.30
2018-07-09T21:44:11.867Z,1.27
2018-07-09T21:46:39.147Z,0.97
2018-07-09T21:49:06.409Z,0.73
2018-07-09T21:51:33.682Z,0.70
2018-07-09T21:54:00.968Z,1.10
2018-07-09T21:56:28.349Z,0.97
2018-07-09T21:58:55.618Z,0.80
2018-07-09T22:01:22.947Z,0.90
2018-07-09T22:03:50.235Z,0.90
2018-07-09T22:06:17.499Z,0.93
2018-07-09T22:08:44.759Z,0.80
2018-07-09T22:11:12.023Z,0.90
2018-07-09T22:13:39.275Z,0.53
2018-07-09T22:16:06.557Z,1.10
2018-07-09T22:18:33.799Z,0.67
2018-07-09T22:21:01.098Z,0.80
2018-07-09T22:23:28.407Z,0.70
2018-07-09T22:25:55.663Z,0.80
2018-07-09T22:28:22.928Z,0.90
2018-07-09T22:30:51.259Z,0.80
2018-07-09T22:33:19.568Z,0.60
2018-07-09T22:35:47.889Z,0.80
2018-07-09T22:38:16.242Z,1.03
2018-07-09T22:40:44.549Z,0.80
2018-07-09T22:43:24.319Z,0.60
2018-07-09T22:45:52.656Z,0.70
2018-07-09T22:48:21.010Z,0.50
2018-07-09T22:50:49.355Z,0.90
2018-07-09T22:53:17.772Z,0.70
2018-07-09T22:55:57.423Z,0.70
2018-07-09T22:58:25.741Z,1.00
2018-07-09T23:00:54.121Z,0.60
2018-07-09T23:03:22.473Z,1.03
2018-07-09T23:05:50.802Z,0.73
2018-07-09T23:08:19.175Z,0.87
2018-07-09T23:13:20.617Z,1.47
2018-07-09T23:16:00.339Z,0.80
2018-07-09T23:18:40.011Z,1.00
2018-07-09T23:21:35.302Z,0.93
2018-07-09T23:24:02.857Z,0.80
2018-07-09T23:26:30.112Z,1.23
2018-07-09T23:28:57.450Z,0.90
2018-07-09T23:31:24.747Z,0.73
2018-07-09T23:33:52.191Z,0.87
2018-07-09T23:36:19.655Z,0.87
2018-07-09T23:38:46.955Z,0.80
2018-07-09T23:41:14.242Z,0.67
2018-07-09T23:43:41.527Z,0.80
2018-07-09T23:46:08.815Z,0.80
2018-07-09T23:48:36.108Z,0.60
2018-07-09T23:51:03.480Z,0.97
2018-07-09T23:53:31.141Z,0.87
2018-07-09T23:56:15.769Z,0.60
2018-07-09T23:59:52.962Z,0.63
